sensor_id;sensor_type;location;lat;lon;timestamp;temperature;humidity
15535;DHT22;7869;49.264;8.596;2023-01-16T00:01:58;5.70;99.90
15535;DHT22;7869;49.264;8.596;2023-01-16T00:04:23;5.70;99.90
15535;DHT22;7869;49.264;8.596;2023-01-16T00:06:49;5.70;99.90
15535;DHT22;7869;49.264;8.596;2023-01-16T00:09:15;5.70;99.90
15535;DHT22;7869;49.264;8.596;2023-01-16T00:11:40;5.70;99.90
15535;DHT22;7869;49.264;8.596;2023-01-16T00:14:05;5.70;99.90
15535;DHT22;7869;49.264;8.596;2023-01-16T00:16:31;5.70;99.90
15535;DHT22;7869;49.264;8.596;2023-01-16T00:18:56;5.70;99.90
15535;DHT22;7869;49.264;8.596;2023-01-16T00:21:22;5.70;99.90
15535;DHT22;7869;49.264;8.596;2023-01-16T00:24:00;5.70;99.90
15535;DHT22;7869;49.264;8.596;2023-01-16T00:26:26;5.70;99.90
15535;DHT22;7869;49.264;8.596;2023-01-16T00:28:52;5.70;99.90
15535;DHT22;7869;49.264;8.596;2023-01-16T00:31:17;5.70;99.90
15535;DHT22;7869;49.264;8.596;2023-01-16T00:33:43;5.70;99.90
15535;DHT22;7869;49.264;8.596;2023-01-16T00:36:09;5.70;99.90
15535;DHT22;7869;49.264;8.596;2023-01-16T00:38:35;5.60;99.90
15535;DHT22;7869;49.264;8.596;2023-01-16T00:41:00;5.60;99.90
15535;DHT22;7869;49.264;8.596;2023-01-16T00:43:26;5.60;99.90
15535;DHT22;7869;49.264;8.596;2023-01-16T00:45:51;5.60;99.90
15535;DHT22;7869;49.264;8.596;2023-01-16T00:48:17;5.60;99.90
15535;DHT22;7869;49.264;8.596;2023-01-16T00:50:42;5.60;99.90
15535;DHT22;7869;49.264;8.596;2023-01-16T00:53:08;5.60;99.90
15535;DHT22;7869;49.264;8.596;2023-01-16T00:55:34;5.60;99.90
15535;DHT22;7869;49.264;8.596;2023-01-16T00:58:00;5.60;99.90
15535;DHT22;7869;49.264;8.596;2023-01-16T01:00:26;5.60;99.90
15535;DHT22;7869;49.264;8.596;2023-01-16T01:02:51;5.50;99.90
15535;DHT22;7869;49.264;8.596;2023-01-16T01:05:17;5.60;99.90
15535;DHT22;7869;49.264;8.596;2023-01-16T01:07:42;5.50;99.90
15535;DHT22;7869;49.264;8.596;2023-01-16T01:10:08;5.50;99.90
15535;DHT22;7869;49.264;8.596;2023-01-16T01:12:33;5.50;99.90
15535;DHT22;7869;49.264;8.596;2023-01-16T01:14:59;5.50;99.90
15535;DHT22;7869;49.264;8.596;2023-01-16T01:17:24;5.50;99.90
15535;DHT22;7869;49.264;8.596;2023-01-16T01:19:50;5.60;99.90
15535;DHT22;7869;49.264;8.596;2023-01-16T01:22:15;5.50;99.90
15535;DHT22;7869;49.264;8.596;2023-01-16T01:24:41;5.50;99.90
15535;DHT22;7869;49.264;8.596;2023-01-16T01:27:07;5.50;99.90
15535;DHT22;7869;49.264;8.596;2023-01-16T01:29:32;5.40;99.90
15535;DHT22;7869;49.264;8.596;2023-01-16T01:31:58;5.30;99.90
15535;DHT22;7869;49.264;8.596;2023-01-16T01:34:23;5.20;99.90
15535;DHT22;7869;49.264;8.596;2023-01-16T01:36:49;5.20;99.90
15535;DHT22;7869;49.264;8.596;2023-01-16T01:39:14;5.20;99.90
15535;DHT22;7869;49.264;8.596;2023-01-16T01:41:39;5.20;99.90
15535;DHT22;7869;49.264;8.596;2023-01-16T01:46:49;5.30;99.90
15535;DHT22;7869;49.264;8.596;2023-01-16T01:49:17;5.30;99.90
15535;DHT22;7869;49.264;8.596;2023-01-16T01:51:46;5.20;99.90
15535;DHT22;7869;49.264;8.596;2023-01-16T01:54:13;5.20;99.90
15535;DHT22;7869;49.264;8.596;2023-01-16T01:56:43;5.20;99.90
15535;DHT22;7869;49.264;8.596;2023-01-16T01:59:11;5.10;99.90
15535;DHT22;7869;49.264;8.596;2023-01-16T02:01:37;5.10;99.90
15535;DHT22;7869;49.264;8.596;2023-01-16T02:04:07;5.10;99.90
15535;DHT22;7869;49.264;8.596;2023-01-16T02:06:39;5.00;99.90
15535;DHT22;7869;49.264;8.596;2023-01-16T02:09:06;4.90;99.90
15535;DHT22;7869;49.264;8.596;2023-01-16T02:11:36;4.90;99.90
15535;DHT22;7869;49.264;8.596;2023-01-16T02:14:05;4.90;99.90
15535;DHT22;7869;49.264;8.596;2023-01-16T02:16:31;4.90;99.90
15535;DHT22;7869;49.264;8.596;2023-01-16T02:19:22;4.90;99.90
15535;DHT22;7869;49.264;8.596;2023-01-16T02:27:55;4.90;99.90
15535;DHT22;7869;49.264;8.596;2023-01-16T02:35:34;4.90;99.90
15535;DHT22;7869;49.264;8.596;2023-01-16T02:43:33;5.10;99.90
15535;DHT22;7869;49.264;8.596;2023-01-16T02:46:11;5.20;99.90
15535;DHT22;7869;49.264;8.596;2023-01-16T02:51:28;5.30;99.90
15535;DHT22;7869;49.264;8.596;2023-01-16T02:53:59;5.30;99.90
15535;DHT22;7869;49.264;8.596;2023-01-16T02:56:31;5.30;99.90
15535;DHT22;7869;49.264;8.596;2023-01-16T02:59:01;5.30;99.90
15535;DHT22;7869;49.264;8.596;2023-01-16T03:01:26;5.20;99.90
15535;DHT22;7869;49.264;8.596;2023-01-16T03:06:24;5.30;99.90
15535;DHT22;7869;49.264;8.596;2023-01-16T03:11:18;5.50;99.90
15535;DHT22;7869;49.264;8.596;2023-01-16T03:17:14;5.50;99.90
15535;DHT22;7869;49.264;8.596;2023-01-16T03:22:24;5.50;99.90
15535;DHT22;7869;49.264;8.596;2023-01-16T03:25:00;5.50;99.90
15535;DHT22;7869;49.264;8.596;2023-01-16T03:29:54;5.50;99.90
15535;DHT22;7869;49.264;8.596;2023-01-16T03:35:24;5.40;99.90
15535;DHT22;7869;49.264;8.596;2023-01-16T03:37:57;5.40;99.90
15535;DHT22;7869;49.264;8.596;2023-01-16T03:40:30;5.40;99.90
15535;DHT22;7869;49.264;8.596;2023-01-16T03:42:59;5.40;99.90
15535;DHT22;7869;49.264;8.596;2023-01-16T03:48:16;5.40;99.90
15535;DHT22;7869;49.264;8.596;2023-01-16T03:50:44;5.30;99.90
15535;DHT22;7869;49.264;8.596;2023-01-16T03:53:13;5.30;99.90
15535;DHT22;7869;49.264;8.596;2023-01-16T03:55:42;5.20;99.90
15535;DHT22;7869;49.264;8.596;2023-01-16T03:58:14;5.20;99.90
15535;DHT22;7869;49.264;8.596;2023-01-16T04:00:50;5.10;99.90
15535;DHT22;7869;49.264;8.596;2023-01-16T04:03:24;5.10;99.90
15535;DHT22;7869;49.264;8.596;2023-01-16T04:05:53;5.00;99.90
15535;DHT22;7869;49.264;8.596;2023-01-16T04:08:22;5.00;99.90
15535;DHT22;7869;49.264;8.596;2023-01-16T04:10:50;5.00;99.90
15535;DHT22;7869;49.264;8.596;2023-01-16T04:13:18;5.00;99.90
15535;DHT22;7869;49.264;8.596;2023-01-16T04:15:50;5.00;99.90
15535;DHT22;7869;49.264;8.596;2023-01-16T04:18:16;5.00;99.90
15535;DHT22;7869;49.264;8.596;2023-01-16T04:20:43;5.00;99.90
15535;DHT22;7869;49.264;8.596;2023-01-16T04:23:11;5.00;99.90
15535;DHT22;7869;49.264;8.596;2023-01-16T04:25:36;5.00;99.90
15535;DHT22;7869;49.264;8.596;2023-01-16T04:28:02;4.90;99.90
15535;DHT22;7869;49.264;8.596;2023-01-16T04:30:27;5.00;99.90
15535;DHT22;7869;49.264;8.596;2023-01-16T04:32:53;4.90;99.90
15535;DHT22;7869;49.264;8.596;2023-01-16T04:35:18;4.90;99.90
15535;DHT22;7869;49.264;8.596;2023-01-16T04:37:44;4.90;99.90
15535;DHT22;7869;49.264;8.596;2023-01-16T04:40:10;4.90;99.90
15535;DHT22;7869;49.264;8.596;2023-01-16T04:42:35;4.90;99.90
15535;DHT22;7869;49.264;8.596;2023-01-16T04:45:02;4.90;99.90
15535;DHT22;7869;49.264;8.596;2023-01-16T04:47:27;4.80;99.90
15535;DHT22;7869;49.264;8.596;2023-01-16T04:49:53;4.80;99.90
15535;DHT22;7869;49.264;8.596;2023-01-16T04:52:18;4.80;99.90
15535;DHT22;7869;49.264;8.596;2023-01-16T04:54:44;4.80;99.90
15535;DHT22;7869;49.264;8.596;2023-01-16T04:57:09;4.80;99.90
15535;DHT22;7869;49.264;8.596;2023-01-16T04:59:34;4.90;99.90
15535;DHT22;7869;49.264;8.596;2023-01-16T05:02:00;4.90;99.90
15535;DHT22;7869;49.264;8.596;2023-01-16T05:04:25;4.90;99.90
15535;DHT22;7869;49.264;8.596;2023-01-16T05:06:51;5.00;99.90
15535;DHT22;7869;49.264;8.596;2023-01-16T05:09:16;5.00;99.90
15535;DHT22;7869;49.264;8.596;2023-01-16T05:11:42;5.00;99.90
15535;DHT22;7869;49.264;8.596;2023-01-16T05:14:07;5.00;99.90
15535;DHT22;7869;49.264;8.596;2023-01-16T05:16:36;5.00;99.90
15535;DHT22;7869;49.264;8.596;2023-01-16T05:19:02;5.10;99.90
15535;DHT22;7869;49.264;8.596;2023-01-16T05:21:28;5.10;99.90
15535;DHT22;7869;49.264;8.596;2023-01-16T05:23:54;5.00;99.90
15535;DHT22;7869;49.264;8.596;2023-01-16T05:26:19;5.00;99.90
15535;DHT22;7869;49.264;8.596;2023-01-16T05:28:44;5.00;99.90
15535;DHT22;7869;49.264;8.596;2023-01-16T05:31:10;5.00;99.90
15535;DHT22;7869;49.264;8.596;2023-01-16T05:33:35;5.00;99.90
15535;DHT22;7869;49.264;8.596;2023-01-16T05:36:01;5.00;99.90
15535;DHT22;7869;49.264;8.596;2023-01-16T05:38:26;4.90;99.90
15535;DHT22;7869;49.264;8.596;2023-01-16T05:40:52;4.90;99.90
15535;DHT22;7869;49.264;8.596;2023-01-16T05:43:18;5.00;99.90
15535;DHT22;7869;49.264;8.596;2023-01-16T05:45:44;4.90;99.90
15535;DHT22;7869;49.264;8.596;2023-01-16T05:48:10;4.90;99.90
15535;DHT22;7869;49.264;8.596;2023-01-16T05:50:35;4.80;99.90
15535;DHT22;7869;49.264;8.596;2023-01-16T05:53:01;4.80;99.90
15535;DHT22;7869;49.264;8.596;2023-01-16T05:55:26;4.80;99.90
15535;DHT22;7869;49.264;8.596;2023-01-16T05:57:52;4.80;99.90
15535;DHT22;7869;49.264;8.596;2023-01-16T06:00:17;4.80;99.90
15535;DHT22;7869;49.264;8.596;2023-01-16T06:02:43;4.80;99.90
15535;DHT22;7869;49.264;8.596;2023-01-16T06:05:10;4.80;99.90
15535;DHT22;7869;49.264;8.596;2023-01-16T06:07:35;4.80;99.90
15535;DHT22;7869;49.264;8.596;2023-01-16T06:10:01;4.80;99.90
15535;DHT22;7869;49.264;8.596;2023-01-16T06:12:26;4.80;99.90
15535;DHT22;7869;49.264;8.596;2023-01-16T06:14:52;4.70;99.90
15535;DHT22;7869;49.264;8.596;2023-01-16T06:17:17;4.60;99.90
15535;DHT22;7869;49.264;8.596;2023-01-16T06:19:43;4.60;99.90
15535;DHT22;7869;49.264;8.596;2023-01-16T06:22:09;4.50;99.90
15535;DHT22;7869;49.264;8.596;2023-01-16T06:24:35;4.50;99.90
15535;DHT22;7869;49.264;8.596;2023-01-16T06:27:00;4.40;99.90
15535;DHT22;7869;49.264;8.596;2023-01-16T06:29:26;4.30;99.90
15535;DHT22;7869;49.264;8.596;2023-01-16T06:31:51;4.30;99.90
15535;DHT22;7869;49.264;8.596;2023-01-16T06:34:17;4.20;99.90
15535;DHT22;7869;49.264;8.596;2023-01-16T06:36:42;4.20;99.90
15535;DHT22;7869;49.264;8.596;2023-01-16T06:39:11;4.20;99.90
15535;DHT22;7869;49.264;8.596;2023-01-16T06:41:36;4.10;99.90
15535;DHT22;7869;49.264;8.596;2023-01-16T06:44:02;4.10;99.90
15535;DHT22;7869;49.264;8.596;2023-01-16T06:46:27;4.10;99.90
15535;DHT22;7869;49.264;8.596;2023-01-16T06:48:53;4.10;99.90
15535;DHT22;7869;49.264;8.596;2023-01-16T06:51:18;4.10;99.90
15535;DHT22;7869;49.264;8.596;2023-01-16T06:53:44;4.10;99.90
15535;DHT22;7869;49.264;8.596;2023-01-16T06:56:09;4.10;99.90
15535;DHT22;7869;49.264;8.596;2023-01-16T06:58:34;4.10;99.90
15535;DHT22;7869;49.264;8.596;2023-01-16T07:01:00;4.00;99.90
15535;DHT22;7869;49.264;8.596;2023-01-16T07:03:25;4.00;99.90
15535;DHT22;7869;49.264;8.596;2023-01-16T07:05:51;4.00;99.90
15535;DHT22;7869;49.264;8.596;2023-01-16T07:08:16;4.00;99.90
15535;DHT22;7869;49.264;8.596;2023-01-16T07:10:42;4.00;99.90
15535;DHT22;7869;49.264;8.596;2023-01-16T07:13:07;4.10;99.90
15535;DHT22;7869;49.264;8.596;2023-01-16T07:15:35;4.10;99.90
15535;DHT22;7869;49.264;8.596;2023-01-16T07:18:20;4.10;99.90
15535;DHT22;7869;49.264;8.596;2023-01-16T07:21:05;4.10;99.90
15535;DHT22;7869;49.264;8.596;2023-01-16T07:23:50;4.10;99.90
15535;DHT22;7869;49.264;8.596;2023-01-16T07:26:16;4.10;99.90
15535;DHT22;7869;49.264;8.596;2023-01-16T07:28:45;4.10;99.90
15535;DHT22;7869;49.264;8.596;2023-01-16T07:31:11;4.20;99.90
15535;DHT22;7869;49.264;8.596;2023-01-16T07:33:37;4.20;99.90
15535;DHT22;7869;49.264;8.596;2023-01-16T07:36:03;4.20;99.90
15535;DHT22;7869;49.264;8.596;2023-01-16T07:38:28;4.20;99.90
15535;DHT22;7869;49.264;8.596;2023-01-16T07:40:54;4.20;99.90
15535;DHT22;7869;49.264;8.596;2023-01-16T07:43:19;4.20;99.90
15535;DHT22;7869;49.264;8.596;2023-01-16T07:45:45;4.30;99.90
15535;DHT22;7869;49.264;8.596;2023-01-16T07:48:17;4.30;99.90
15535;DHT22;7869;49.264;8.596;2023-01-16T07:50:48;4.30;99.90
15535;DHT22;7869;49.264;8.596;2023-01-16T07:53:13;4.30;99.90
15535;DHT22;7869;49.264;8.596;2023-01-16T07:55:39;4.40;99.90
15535;DHT22;7869;49.264;8.596;2023-01-16T07:58:04;4.30;99.90
15535;DHT22;7869;49.264;8.596;2023-01-16T08:00:30;4.40;99.90
15535;DHT22;7869;49.264;8.596;2023-01-16T08:02:55;4.40;99.90
15535;DHT22;7869;49.264;8.596;2023-01-16T08:05:21;4.40;99.90
15535;DHT22;7869;49.264;8.596;2023-01-16T08:07:46;4.50;99.90
15535;DHT22;7869;49.264;8.596;2023-01-16T08:10:12;4.60;99.90
15535;DHT22;7869;49.264;8.596;2023-01-16T08:12:38;4.60;99.90
15535;DHT22;7869;49.264;8.596;2023-01-16T08:15:04;4.60;99.90
15535;DHT22;7869;49.264;8.596;2023-01-16T08:17:30;4.70;99.90
15535;DHT22;7869;49.264;8.596;2023-01-16T08:19:55;4.70;99.90
15535;DHT22;7869;49.264;8.596;2023-01-16T08:22:21;4.70;99.90
15535;DHT22;7869;49.264;8.596;2023-01-16T08:24:46;4.80;99.90
15535;DHT22;7869;49.264;8.596;2023-01-16T08:27:11;4.80;99.90
15535;DHT22;7869;49.264;8.596;2023-01-16T08:29:37;4.90;99.90
15535;DHT22;7869;49.264;8.596;2023-01-16T08:32:03;4.90;99.90
15535;DHT22;7869;49.264;8.596;2023-01-16T08:34:29;5.00;99.90
15535;DHT22;7869;49.264;8.596;2023-01-16T08:36:54;5.00;99.90
15535;DHT22;7869;49.264;8.596;2023-01-16T08:39:20;5.00;99.90
15535;DHT22;7869;49.264;8.596;2023-01-16T08:41:46;5.00;99.90
15535;DHT22;7869;49.264;8.596;2023-01-16T08:44:30;5.10;99.90
15535;DHT22;7869;49.264;8.596;2023-01-16T08:47:22;5.00;99.90
15535;DHT22;7869;49.264;8.596;2023-01-16T08:50:10;5.10;99.90
15535;DHT22;7869;49.264;8.596;2023-01-16T08:52:54;5.10;99.90
15535;DHT22;7869;49.264;8.596;2023-01-16T08:55:20;5.10;99.90
15535;DHT22;7869;49.264;8.596;2023-01-16T08:57:45;5.10;99.90
15535;DHT22;7869;49.264;8.596;2023-01-16T09:00:11;5.10;99.90
15535;DHT22;7869;49.264;8.596;2023-01-16T09:02:36;5.10;99.90
15535;DHT22;7869;49.264;8.596;2023-01-16T09:05:03;5.10;99.90
15535;DHT22;7869;49.264;8.596;2023-01-16T09:07:29;5.20;99.90
15535;DHT22;7869;49.264;8.596;2023-01-16T09:09:55;5.20;99.90
15535;DHT22;7869;49.264;8.596;2023-01-16T09:12:20;5.20;99.90
15535;DHT22;7869;49.264;8.596;2023-01-16T09:15:05;5.20;99.90
15535;DHT22;7869;49.264;8.596;2023-01-16T09:17:30;5.30;99.90
15535;DHT22;7869;49.264;8.596;2023-01-16T09:19:56;5.30;99.90
15535;DHT22;7869;49.264;8.596;2023-01-16T09:22:22;5.30;99.90
15535;DHT22;7869;49.264;8.596;2023-01-16T09:24:47;5.30;99.90
15535;DHT22;7869;49.264;8.596;2023-01-16T09:27:13;5.30;99.90
15535;DHT22;7869;49.264;8.596;2023-01-16T09:29:38;5.30;99.90
15535;DHT22;7869;49.264;8.596;2023-01-16T09:32:04;5.30;99.90
15535;DHT22;7869;49.264;8.596;2023-01-16T09:34:34;5.30;99.90
15535;DHT22;7869;49.264;8.596;2023-01-16T09:36:59;5.40;99.90
15535;DHT22;7869;49.264;8.596;2023-01-16T09:39:25;5.40;99.90
15535;DHT22;7869;49.264;8.596;2023-01-16T09:41:58;5.40;99.90
15535;DHT22;7869;49.264;8.596;2023-01-16T09:44:47;5.50;99.90
15535;DHT22;7869;49.264;8.596;2023-01-16T09:47:14;5.50;99.90
15535;DHT22;7869;49.264;8.596;2023-01-16T09:52:06;5.50;99.90
15535;DHT22;7869;49.264;8.596;2023-01-16T09:54:52;5.50;99.90
15535;DHT22;7869;49.264;8.596;2023-01-16T09:57:38;5.50;99.90
15535;DHT22;7869;49.264;8.596;2023-01-16T10:00:23;5.60;99.90
15535;DHT22;7869;49.264;8.596;2023-01-16T10:02:49;5.60;99.90
15535;DHT22;7869;49.264;8.596;2023-01-16T10:05:15;5.60;99.90
15535;DHT22;7869;49.264;8.596;2023-01-16T10:10:41;5.60;99.90
15535;DHT22;7869;49.264;8.596;2023-01-16T10:15:36;5.60;99.90
15535;DHT22;7869;49.264;8.596;2023-01-16T10:18:10;5.50;99.90
15535;DHT22;7869;49.264;8.596;2023-01-16T10:20:54;5.50;99.90
15535;DHT22;7869;49.264;8.596;2023-01-16T10:23:38;5.50;99.90
15535;DHT22;7869;49.264;8.596;2023-01-16T10:26:08;5.40;99.90
15535;DHT22;7869;49.264;8.596;2023-01-16T10:31:05;5.40;99.90
15535;DHT22;7869;49.264;8.596;2023-01-16T10:33:48;5.40;99.90
15535;DHT22;7869;49.264;8.596;2023-01-16T10:36:15;5.40;99.90
15535;DHT22;7869;49.264;8.596;2023-01-16T10:38:48;5.40;99.90
15535;DHT22;7869;49.264;8.596;2023-01-16T10:41:32;5.40;99.90
15535;DHT22;7869;49.264;8.596;2023-01-16T10:44:26;5.40;99.90
15535;DHT22;7869;49.264;8.596;2023-01-16T10:47:11;5.50;99.90
15535;DHT22;7869;49.264;8.596;2023-01-16T10:49:56;5.60;99.90
15535;DHT22;7869;49.264;8.596;2023-01-16T10:52:22;5.60;99.90
15535;DHT22;7869;49.264;8.596;2023-01-16T10:54:50;5.60;99.90
15535;DHT22;7869;49.264;8.596;2023-01-16T10:57:17;5.60;99.90
15535;DHT22;7869;49.264;8.596;2023-01-16T10:59:43;5.60;99.90
15535;DHT22;7869;49.264;8.596;2023-01-16T11:02:17;5.70;99.90
15535;DHT22;7869;49.264;8.596;2023-01-16T11:04:44;5.60;99.90
15535;DHT22;7869;49.264;8.596;2023-01-16T11:07:14;5.60;99.90
15535;DHT22;7869;49.264;8.596;2023-01-16T11:09:40;5.60;99.90
15535;DHT22;7869;49.264;8.596;2023-01-16T11:12:08;5.60;99.90
15535;DHT22;7869;49.264;8.596;2023-01-16T11:14:55;5.60;99.90
15535;DHT22;7869;49.264;8.596;2023-01-16T11:17:40;5.60;99.90
15535;DHT22;7869;49.264;8.596;2023-01-16T11:20:34;5.60;99.90
15535;DHT22;7869;49.264;8.596;2023-01-16T11:23:15;5.60;99.90
15535;DHT22;7869;49.264;8.596;2023-01-16T11:25:42;5.70;99.90
15535;DHT22;7869;49.264;8.596;2023-01-16T11:28:10;5.80;99.90
15535;DHT22;7869;49.264;8.596;2023-01-16T11:30:38;5.80;99.90
15535;DHT22;7869;49.264;8.596;2023-01-16T11:33:04;5.90;99.90
15535;DHT22;7869;49.264;8.596;2023-01-16T11:35:34;6.00;99.90
15535;DHT22;7869;49.264;8.596;2023-01-16T11:38:01;6.00;99.90
15535;DHT22;7869;49.264;8.596;2023-01-16T11:40:28;6.10;99.90
15535;DHT22;7869;49.264;8.596;2023-01-16T11:42:55;6.10;99.90
15535;DHT22;7869;49.264;8.596;2023-01-16T11:45:44;6.10;99.90
15535;DHT22;7869;49.264;8.596;2023-01-16T11:48:33;6.10;99.90
15535;DHT22;7869;49.264;8.596;2023-01-16T11:50:58;6.20;99.90
15535;DHT22;7869;49.264;8.596;2023-01-16T11:53:32;6.30;99.90
15535;DHT22;7869;49.264;8.596;2023-01-16T12:03:52;6.90;99.90
15535;DHT22;7869;49.264;8.596;2023-01-16T12:11:29;7.10;99.90
15535;DHT22;7869;49.264;8.596;2023-01-16T12:24:42;7.30;99.90
15535;DHT22;7869;49.264;8.596;2023-01-16T12:29:37;7.40;99.90
15535;DHT22;7869;49.264;8.596;2023-01-16T12:32:17;7.50;99.90
15535;DHT22;7869;49.264;8.596;2023-01-16T12:35:50;7.50;99.90
15535;DHT22;7869;49.264;8.596;2023-01-16T12:45:44;7.50;99.90
15535;DHT22;7869;49.264;8.596;2023-01-16T12:51:05;7.50;99.90
15535;DHT22;7869;49.264;8.596;2023-01-16T12:58:31;7.50;99.90
15535;DHT22;7869;49.264;8.596;2023-01-16T13:03:45;7.50;99.90
15535;DHT22;7869;49.264;8.596;2023-01-16T13:06:15;7.50;99.90
15535;DHT22;7869;49.264;8.596;2023-01-16T13:08:46;7.40;99.90
15535;DHT22;7869;49.264;8.596;2023-01-16T13:11:19;7.30;99.90
15535;DHT22;7869;49.264;8.596;2023-01-16T13:14:05;7.20;99.90
15535;DHT22;7869;49.264;8.596;2023-01-16T13:19:05;7.10;99.90
15535;DHT22;7869;49.264;8.596;2023-01-16T13:21:36;7.10;99.90
15535;DHT22;7869;49.264;8.596;2023-01-16T13:24:05;7.10;99.90
15535;DHT22;7869;49.264;8.596;2023-01-16T13:26:34;7.00;99.90
15535;DHT22;7869;49.264;8.596;2023-01-16T13:29:13;7.00;99.90
15535;DHT22;7869;49.264;8.596;2023-01-16T13:31:43;6.90;99.90
15535;DHT22;7869;49.264;8.596;2023-01-16T13:34:18;6.90;99.90
15535;DHT22;7869;49.264;8.596;2023-01-16T13:41:46;6.90;99.90
15535;DHT22;7869;49.264;8.596;2023-01-16T13:44:15;6.80;99.90
15535;DHT22;7869;49.264;8.596;2023-01-16T13:47:08;6.80;99.90
15535;DHT22;7869;49.264;8.596;2023-01-16T13:49:35;6.80;99.90
15535;DHT22;7869;49.264;8.596;2023-01-16T13:52:01;6.80;99.90
15535;DHT22;7869;49.264;8.596;2023-01-16T13:54:37;6.90;99.90
15535;DHT22;7869;49.264;8.596;2023-01-16T13:57:08;7.00;99.90
15535;DHT22;7869;49.264;8.596;2023-01-16T14:02:25;7.00;99.90
15535;DHT22;7869;49.264;8.596;2023-01-16T14:05:41;7.10;99.90
15535;DHT22;7869;49.264;8.596;2023-01-16T14:21:16;7.10;99.90
15535;DHT22;7869;49.264;8.596;2023-01-16T14:23:44;7.10;99.90
15535;DHT22;7869;49.264;8.596;2023-01-16T14:26:37;7.10;99.90
15535;DHT22;7869;49.264;8.596;2023-01-16T14:29:05;7.20;99.90
15535;DHT22;7869;49.264;8.596;2023-01-16T14:31:38;7.10;99.90
15535;DHT22;7869;49.264;8.596;2023-01-16T14:34:04;7.10;99.90
15535;DHT22;7869;49.264;8.596;2023-01-16T14:36:32;7.00;99.90
15535;DHT22;7869;49.264;8.596;2023-01-16T14:38:58;7.10;99.90
15535;DHT22;7869;49.264;8.596;2023-01-16T14:41:30;7.00;99.90
15535;DHT22;7869;49.264;8.596;2023-01-16T14:44:16;7.00;99.90
15535;DHT22;7869;49.264;8.596;2023-01-16T14:50:05;7.10;99.90
15535;DHT22;7869;49.264;8.596;2023-01-16T14:53:03;7.10;99.90
15535;DHT22;7869;49.264;8.596;2023-01-16T14:56:27;7.20;99.90
15535;DHT22;7869;49.264;8.596;2023-01-16T14:58:47;7.20;99.90
15535;DHT22;7869;49.264;8.596;2023-01-16T15:01:19;7.20;99.90
15535;DHT22;7869;49.264;8.596;2023-01-16T15:04:04;7.20;99.90
15535;DHT22;7869;49.264;8.596;2023-01-16T15:06:32;7.20;99.90
15535;DHT22;7869;49.264;8.596;2023-01-16T15:08:59;7.20;99.90
15535;DHT22;7869;49.264;8.596;2023-01-16T15:11:26;7.10;99.90
15535;DHT22;7869;49.264;8.596;2023-01-16T15:20:16;7.10;99.90
15535;DHT22;7869;49.264;8.596;2023-01-16T15:23:01;7.10;99.90
15535;DHT22;7869;49.264;8.596;2023-01-16T15:30:38;6.90;99.90
15535;DHT22;7869;49.264;8.596;2023-01-16T15:33:11;6.80;99.90
15535;DHT22;7869;49.264;8.596;2023-01-16T15:36:09;6.70;99.90
15535;DHT22;7869;49.264;8.596;2023-01-16T15:38:36;6.70;99.90
15535;DHT22;7869;49.264;8.596;2023-01-16T15:41:01;6.60;99.90
15535;DHT22;7869;49.264;8.596;2023-01-16T15:43:28;6.50;99.90
15535;DHT22;7869;49.264;8.596;2023-01-16T15:46:17;6.50;99.90
15535;DHT22;7869;49.264;8.596;2023-01-16T15:49:05;6.50;99.90
15535;DHT22;7869;49.264;8.596;2023-01-16T15:51:33;6.40;99.90
15535;DHT22;7869;49.264;8.596;2023-01-16T15:53:59;6.40;99.90
15535;DHT22;7869;49.264;8.596;2023-01-16T15:56:38;6.40;99.90
15535;DHT22;7869;49.264;8.596;2023-01-16T15:59:23;6.40;99.90
15535;DHT22;7869;49.264;8.596;2023-01-16T16:01:49;6.40;99.90
15535;DHT22;7869;49.264;8.596;2023-01-16T16:04:15;6.40;99.90
15535;DHT22;7869;49.264;8.596;2023-01-16T16:06:41;6.40;99.90
15535;DHT22;7869;49.264;8.596;2023-01-16T16:09:10;6.50;99.90
15535;DHT22;7869;49.264;8.596;2023-01-16T16:11:36;6.50;99.90
15535;DHT22;7869;49.264;8.596;2023-01-16T16:14:37;6.50;99.90
15535;DHT22;7869;49.264;8.596;2023-01-16T16:17:28;6.60;99.90
15535;DHT22;7869;49.264;8.596;2023-01-16T16:20:29;6.60;99.90
15535;DHT22;7869;49.264;8.596;2023-01-16T16:23:17;6.60;99.90
15535;DHT22;7869;49.264;8.596;2023-01-16T16:28:27;6.50;99.90
15535;DHT22;7869;49.264;8.596;2023-01-16T16:33:21;6.30;99.90
15535;DHT22;7869;49.264;8.596;2023-01-16T16:35:51;6.20;99.90
15535;DHT22;7869;49.264;8.596;2023-01-16T16:38:21;6.10;99.90
15535;DHT22;7869;49.264;8.596;2023-01-16T16:40:57;6.00;99.90
15535;DHT22;7869;49.264;8.596;2023-01-16T16:48:50;5.90;99.90
15535;DHT22;7869;49.264;8.596;2023-01-16T16:51:19;5.80;99.90
15535;DHT22;7869;49.264;8.596;2023-01-16T16:53:46;5.80;99.90
15535;DHT22;7869;49.264;8.596;2023-01-16T16:56:12;5.80;99.90
15535;DHT22;7869;49.264;8.596;2023-01-16T16:58:42;5.70;99.90
15535;DHT22;7869;49.264;8.596;2023-01-16T17:01:12;5.70;99.90
15535;DHT22;7869;49.264;8.596;2023-01-16T17:03:39;5.60;99.90
15535;DHT22;7869;49.264;8.596;2023-01-16T17:06:12;5.60;99.90
15535;DHT22;7869;49.264;8.596;2023-01-16T17:08:38;5.60;99.90
15535;DHT22;7869;49.264;8.596;2023-01-16T17:11:04;5.50;99.90
15535;DHT22;7869;49.264;8.596;2023-01-16T17:13:29;5.50;99.90
15535;DHT22;7869;49.264;8.596;2023-01-16T17:15:55;5.50;99.90
15535;DHT22;7869;49.264;8.596;2023-01-16T17:18:22;5.40;99.90
15535;DHT22;7869;49.264;8.596;2023-01-16T17:20:48;5.30;99.90
15535;DHT22;7869;49.264;8.596;2023-01-16T17:23:15;5.30;99.90
15535;DHT22;7869;49.264;8.596;2023-01-16T17:25:41;5.20;99.90
15535;DHT22;7869;49.264;8.596;2023-01-16T17:28:07;5.10;99.90
15535;DHT22;7869;49.264;8.596;2023-01-16T17:30:33;5.10;99.90
15535;DHT22;7869;49.264;8.596;2023-01-16T17:32:59;5.10;99.90
15535;DHT22;7869;49.264;8.596;2023-01-16T17:35:26;5.00;99.90
15535;DHT22;7869;49.264;8.596;2023-01-16T17:37:52;5.10;99.90
15535;DHT22;7869;49.264;8.596;2023-01-16T17:40:17;5.00;99.90
15535;DHT22;7869;49.264;8.596;2023-01-16T17:42:43;5.00;99.90
15535;DHT22;7869;49.264;8.596;2023-01-16T17:45:39;5.00;99.90
15535;DHT22;7869;49.264;8.596;2023-01-16T17:48:17;5.00;99.90
15535;DHT22;7869;49.264;8.596;2023-01-16T17:50:43;5.00;99.90
15535;DHT22;7869;49.264;8.596;2023-01-16T17:53:12;5.00;99.90
15535;DHT22;7869;49.264;8.596;2023-01-16T17:55:38;5.00;99.90
15535;DHT22;7869;49.264;8.596;2023-01-16T17:58:17;5.00;99.90
15535;DHT22;7869;49.264;8.596;2023-01-16T18:00:45;5.00;99.90
15535;DHT22;7869;49.264;8.596;2023-01-16T18:03:11;5.00;99.90
15535;DHT22;7869;49.264;8.596;2023-01-16T18:05:36;4.90;99.90
15535;DHT22;7869;49.264;8.596;2023-01-16T18:08:02;4.90;99.90
15535;DHT22;7869;49.264;8.596;2023-01-16T18:10:28;4.90;99.90
15535;DHT22;7869;49.264;8.596;2023-01-16T18:12:53;4.80;99.90
15535;DHT22;7869;49.264;8.596;2023-01-16T18:15:37;4.80;99.90
15535;DHT22;7869;49.264;8.596;2023-01-16T18:18:21;4.80;99.90
15535;DHT22;7869;49.264;8.596;2023-01-16T18:20:47;4.80;99.90
15535;DHT22;7869;49.264;8.596;2023-01-16T18:23:32;4.80;99.90
15535;DHT22;7869;49.264;8.596;2023-01-16T18:25:57;4.80;99.90
15535;DHT22;7869;49.264;8.596;2023-01-16T18:28:23;4.70;99.90
15535;DHT22;7869;49.264;8.596;2023-01-16T18:30:48;4.70;99.90
15535;DHT22;7869;49.264;8.596;2023-01-16T18:33:14;4.70;99.90
15535;DHT22;7869;49.264;8.596;2023-01-16T18:35:39;4.70;99.90
15535;DHT22;7869;49.264;8.596;2023-01-16T18:38:05;4.70;99.90
15535;DHT22;7869;49.264;8.596;2023-01-16T18:40:49;4.70;99.90
15535;DHT22;7869;49.264;8.596;2023-01-16T18:43:33;4.60;99.90
15535;DHT22;7869;49.264;8.596;2023-01-16T18:46:18;4.60;99.90